Time;durP1;ratioP1;P1;durP2;ratioP2;P2;SDS_P1;SDS_P2;PMS_P1;PMS_P2;Temp;Humidity;BMP_temperature;BMP_pressure;BME280_temperature;BME280_humidity;BME280_pressure;Samples;Min_cycle;Max_cycle;Signal;HPM_P1;HPM_P2
2022/08/03 00:01:27;;;;;;;2.53;0.45;;;20.00;99.90;;;;;;5093587;28;20111;-75
2022/08/03 00:03:52;;;;;;;5.38;0.40;;;20.00;99.90;;;;;;5094706;28;20158;-75
2022/08/03 00:06:18;;;;;;;4.85;0.17;;;19.90;99.90;;;;;;5094826;28;20028;-75
2022/08/03 00:08:43;;;;;;;1.65;0.00;;;19.80;99.90;;;;;;5093322;28;20043;-75
2022/08/03 00:11:09;;;;;;;4.72;0.35;;;19.80;99.90;;;;;;5094438;28;20097;-75
2022/08/03 00:13:34;;;;;;;1.35;0.22;;;19.80;99.90;;;;;;5093077;28;20024;-75
2022/08/03 00:16:00;;;;;;;3.38;0.00;;;19.80;99.90;;;;;;5094595;28;20532;-75
2022/08/03 00:18:26;;;;;;;2.08;0.00;;;19.80;99.90;;;;;;5094760;28;20028;-75
2022/08/03 00:20:51;;;;;;;0.63;0.00;;;19.70;99.90;;;;;;5093179;28;20027;-75
2022/08/03 00:23:17;;;;;;;3.80;0.10;;;19.80;99.90;;;;;;5095041;28;20096;-75
2022/08/03 00:25:42;;;;;;;0.30;0.00;;;19.80;99.90;;;;;;5094448;28;20573;-75
2022/08/03 00:28:08;;;;;;;2.03;0.30;;;20.40;99.90;;;;;;5094384;28;20051;-75
2022/08/03 00:30:34;;;;;;;1.23;0.00;;;19.70;99.90;;;;;;5094209;28;20400;-75
2022/08/03 00:33:00;;;;;;;4.68;0.57;;;19.70;99.90;;;;;;5092941;28;20392;-75
2022/08/03 00:35:26;;;;;;;0.20;0.00;;;19.60;99.90;;;;;;5094052;28;20099;-75
2022/08/03 00:37:52;;;;;;;1.23;0.10;;;19.90;99.90;;;;;;5094731;28;20020;-75
2022/08/03 00:40:18;;;;;;;5.15;0.10;;;19.60;99.90;;;;;;5094516;28;20372;-75
2022/08/03 00:42:50;;;;;;;4.43;0.40;;;19.60;99.90;;;;;;5094180;28;20107;-75
2022/08/03 00:45:17;;;;;;;2.00;0.38;;;19.50;99.90;;;;;;5094257;28;20027;-75
2022/08/03 00:47:43;;;;;;;4.25;0.20;;;19.50;99.90;;;;;;5093172;28;20020;-75
2022/08/03 00:50:09;;;;;;;3.95;0.10;;;19.50;99.90;;;;;;5093836;28;20400;-75
2022/08/03 00:52:35;;;;;;;2.80;0.00;;;19.40;99.90;;;;;;5093163;28;20108;-75
2022/08/03 00:55:02;;;;;;;6.60;0.22;;;19.40;99.90;;;;;;5093964;28;20027;-75
2022/08/03 00:57:30;;;;;;;2.75;0.15;;;19.40;99.90;;;;;;5094022;28;20571;-75
2022/08/03 00:59:56;;;;;;;3.25;0.32;;;19.40;99.90;;;;;;5093709;28;20480;-75
2022/08/03 01:02:21;;;;;;;3.05;0.20;;;19.40;99.90;;;;;;5093873;28;20213;-75
2022/08/03 01:04:47;;;;;;;1.85;0.10;;;19.40;99.90;;;;;;5094092;28;20024;-75
2022/08/03 01:07:51;;;;;;;1.45;0.00;;;19.40;99.90;;;;;;5092624;28;20032;-75
2022/08/03 01:10:24;;;;;;;4.28;0.00;;;19.40;99.90;;;;;;5092313;28;20485;-75
2022/08/03 01:13:16;;;;;;;2.92;0.00;;;19.30;99.90;;;;;;5092343;28;20055;-75
2022/08/03 01:15:52;;;;;;;1.65;0.00;;;19.30;99.90;;;;;;5092508;28;20380;-75
2022/08/03 01:18:25;;;;;;;2.65;0.22;;;19.30;99.90;;;;;;5092865;28;20050;-75
2022/08/03 01:20:56;;;;;;;4.55;0.00;;;19.20;99.90;;;;;;5093698;28;20031;-75
2022/08/03 01:23:40;;;;;;;2.88;0.22;;;19.20;99.90;;;;;;5092491;28;20373;-75
2022/08/03 01:26:25;;;;;;;9.27;0.55;;;19.10;99.90;;;;;;5092450;28;20480;-75
2022/08/03 01:29:03;;;;;;;0.95;0.00;;;19.10;99.90;;;;;;5092411;28;20032;-75
2022/08/03 01:31:41;;;;;;;3.38;0.05;;;19.00;99.90;;;;;;5094070;28;20020;-75
2022/08/03 01:34:13;;;;;;;7.72;0.30;;;19.00;99.90;;;;;;5093746;28;20149;-75
2022/08/03 01:36:45;;;;;;;2.45;0.00;;;19.00;99.90;;;;;;5093427;28;20020;-75
2022/08/03 01:39:11;;;;;;;3.17;0.10;;;18.90;99.90;;;;;;5093371;28;20035;-75
2022/08/03 01:41:47;;;;;;;3.20;0.15;;;19.00;99.90;;;;;;5093247;28;20489;-75
2022/08/03 01:44:14;;;;;;;1.85;0.00;;;18.90;99.90;;;;;;5093873;28;20055;-75
2022/08/03 01:46:41;;;;;;;4.65;0.20;;;18.90;99.90;;;;;;5093910;28;20492;-75
2022/08/03 01:49:10;;;;;;;6.55;0.40;;;18.90;99.90;;;;;;5092140;28;20127;-75
2022/08/03 01:51:41;;;;;;;3.20;0.10;;;18.90;99.90;;;;;;5093802;28;20153;-75
2022/08/03 01:54:10;;;;;;;6.05;0.10;;;18.90;99.90;;;;;;5093281;28;20111;-75
2022/08/03 01:56:38;;;;;;;7.40;0.10;;;18.90;99.90;;;;;;5093383;28;20016;-75
2022/08/03 01:59:07;;;;;;;2.53;0.20;;;18.90;99.90;;;;;;5093479;28;20485;-75
2022/08/03 02:01:35;;;;;;;1.77;0.43;;;18.90;99.90;;;;;;5093381;28;20035;-75
2022/08/03 02:04:02;;;;;;;6.05;0.43;;;18.90;99.90;;;;;;5093195;28;20028;-75
2022/08/03 02:06:31;;;;;;;1.02;0.10;;;18.90;99.90;;;;;;5096801;28;20115;-75
2022/08/03 02:08:59;;;;;;;5.30;0.55;;;19.00;99.90;;;;;;5096766;28;20028;-75
2022/08/03 02:11:26;;;;;;;4.90;0.77;;;18.90;99.90;;;;;;5096481;28;20043;-75
2022/08/03 02:13:53;;;;;;;4.32;0.10;;;19.00;99.90;;;;;;5095476;28;20077;-75
2022/08/03 02:16:23;;;;;;;4.88;0.10;;;19.00;99.90;;;;;;5097093;28;20081;-75
2022/08/03 02:18:50;;;;;;;1.45;0.20;;;19.00;99.90;;;;;;5096736;28;20054;-75
2022/08/03 02:21:16;;;;;;;4.30;0.45;;;19.20;99.90;;;;;;5095269;28;20476;-75
2022/08/03 02:23:42;;;;;;;1.80;0.17;;;19.00;99.90;;;;;;5096546;28;20020;-73
2022/08/03 02:26:13;;;;;;;3.65;0.63;;;19.00;99.90;;;;;;5096581;28;20083;-73
2022/08/03 02:28:42;;;;;;;4.30;0.10;;;19.00;99.90;;;;;;5096488;28;20111;-73
2022/08/03 02:31:12;;;;;;;;;;;19.00;99.90;;;;;;5096622;28;20020;-73
2022/08/03 02:33:42;;;;;;;6.68;0.20;;;19.10;99.90;;;;;;5096417;28;20393;-73
2022/08/03 02:36:10;;;;;;;6.20;0.57;;;19.10;99.90;;;;;;5096467;28;20465;-73
2022/08/03 02:38:39;;;;;;;4.00;0.45;;;19.00;99.90;;;;;;5095078;28;20023;-73
2022/08/03 02:41:12;;;;;;;9.52;0.32;;;19.00;99.90;;;;;;5096556;28;20107;-73
2022/08/03 02:43:39;;;;;;;8.52;0.30;;;19.10;99.90;;;;;;5096537;28;20054;-73
2022/08/03 02:46:07;;;;;;;4.65;0.75;;;19.00;99.90;;;;;;5096228;28;20024;-74
2022/08/03 02:48:35;;;;;;;8.80;0.55;;;19.00;99.90;;;;;;5096207;28;20031;-74
2022/08/03 02:51:02;;;;;;;6.47;0.95;;;19.00;99.90;;;;;;5095940;28;20027;-73
2022/08/03 02:53:30;;;;;;;3.97;0.20;;;18.90;99.90;;;;;;5096074;28;20039;-73
2022/08/03 02:55:58;;;;;;;5.33;0.57;;;18.90;99.90;;;;;;5095887;28;20419;-73
2022/08/03 02:58:24;;;;;;;7.45;0.98;;;19.40;99.90;;;;;;5094646;28;20298;-73
2022/08/03 03:00:52;;;;;;;4.32;0.28;;;19.00;99.90;;;;;;5095937;28;20047;-73
2022/08/03 03:03:19;;;;;;;8.55;0.40;;;19.00;99.90;;;;;;5095947;28;20507;-73
2022/08/03 03:05:46;;;;;;;4.65;1.02;;;18.90;99.90;;;;;;5094308;28;20496;-73
2022/08/03 03:08:14;;;;;;;2.55;0.30;;;18.90;99.90;;;;;;5095584;28;20028;-73
2022/08/03 03:10:40;;;;;;;3.95;0.40;;;18.90;99.90;;;;;;5094185;28;20032;-73
2022/08/03 03:13:07;;;;;;;2.28;0.20;;;18.90;99.90;;;;;;5095610;28;20071;-73
2022/08/03 03:15:36;;;;;;;15.02;0.73;;;18.80;99.90;;;;;;5093601;28;20016;-73
2022/08/03 03:18:02;;;;;;;;;;;18.80;99.90;;;;;;5096115;28;20058;-73
2022/08/03 03:20:29;;;;;;;5.15;0.30;;;18.80;99.90;;;;;;5094028;28;19999;-73
2022/08/03 03:22:55;;;;;;;5.70;0.35;;;18.80;99.90;;;;;;5095463;28;20362;-73
2022/08/03 03:25:21;;;;;;;7.57;0.35;;;18.80;99.90;;;;;;5094005;28;20027;-73
2022/08/03 03:27:47;;;;;;;4.80;0.30;;;18.80;99.90;;;;;;5095131;28;20021;-73
2022/08/03 03:30:13;;;;;;;5.20;0.32;;;18.70;99.90;;;;;;5093857;28;20031;-73
2022/08/03 03:32:39;;;;;;;1.15;0.10;;;18.70;99.90;;;;;;5095544;28;20031;-73
2022/08/03 03:35:06;;;;;;;4.60;0.50;;;18.70;99.90;;;;;;5095223;28;20012;-73
2022/08/03 03:37:32;;;;;;;3.42;0.82;;;18.60;99.90;;;;;;5095613;28;20409;-73
2022/08/03 03:39:57;;;;;;;6.07;0.55;;;18.60;99.90;;;;;;5094924;28;20074;-73
2022/08/03 03:42:24;;;;;;;6.93;0.28;;;18.60;99.90;;;;;;5095050;28;20028;-74
2022/08/03 03:44:50;;;;;;;2.60;0.43;;;18.60;99.90;;;;;;5094844;28;20024;-76
2022/08/03 03:47:16;;;;;;;10.27;0.93;;;18.60;99.90;;;;;;5094413;28;20028;-75
2022/08/03 03:49:41;;;;;;;6.30;0.20;;;18.50;99.90;;;;;;5094317;28;20032;-75
2022/08/03 03:52:07;;;;;;;6.75;0.30;;;18.50;99.90;;;;;;5094018;28;20035;-75
2022/08/03 03:54:43;;;;;;;6.82;0.10;;;18.80;99.90;;;;;;5094164;28;20447;-75
2022/08/03 03:57:10;;;;;;;7.28;0.80;;;18.50;99.90;;;;;;5094095;28;20020;-75
2022/08/03 03:59:40;;;;;;;7.78;0.22;;;18.50;99.90;;;;;;5094336;28;20435;-75
2022/08/03 04:02:07;;;;;;;6.00;0.40;;;18.50;99.90;;;;;;5094031;28;20050;-75
2022/08/03 04:12:56;;;;;;;4.97;1.00;;;18.40;99.90;;;;;;5094575;28;20124;-75
2022/08/03 04:15:24;;;;;;;5.60;0.30;;;18.40;99.90;;;;;;5094044;28;20389;-75
2022/08/03 04:17:53;;;;;;;4.85;0.45;;;18.40;99.90;;;;;;5094700;28;20047;-75
2022/08/03 04:20:22;;;;;;;4.28;0.43;;;18.40;99.90;;;;;;5093771;28;20039;-75
2022/08/03 04:22:51;;;;;;;;;;;18.80;99.90;;;;;;5094092;28;20060;-74
2022/08/03 04:25:18;;;;;;;5.85;0.25;;;18.40;99.90;;;;;;5092355;28;20365;-75
2022/08/03 04:27:48;;;;;;;10.32;1.23;;;18.30;99.90;;;;;;5093600;28;20020;-74
2022/08/03 04:30:14;;;;;;;2.53;0.40;;;18.40;99.90;;;;;;5092203;28;20028;-75
2022/08/03 04:32:42;;;;;;;8.32;0.88;;;18.40;99.90;;;;;;5093791;28;20034;-76
2022/08/03 04:35:08;;;;;;;3.60;0.60;;;18.80;99.90;;;;;;5094115;28;20055;-75
2022/08/03 04:37:46;;;;;;;7.28;0.30;;;18.40;99.90;;;;;;5093293;28;20051;-75
2022/08/03 04:40:21;;;;;;;4.35;0.30;;;18.40;99.90;;;;;;5094025;28;20020;-74
2022/08/03 04:42:48;;;;;;;11.98;0.30;;;18.50;99.90;;;;;;5092178;28;20042;-75
2022/08/03 04:45:16;;;;;;;3.88;0.75;;;18.80;99.90;;;;;;5092170;28;20042;-75
2022/08/03 04:47:42;;;;;;;6.10;0.17;;;18.50;99.90;;;;;;5093608;28;20099;-75
2022/08/03 04:50:08;;;;;;;6.03;0.50;;;18.60;99.90;;;;;;5093138;28;20055;-75
2022/08/03 04:52:34;;;;;;;12.30;0.38;;;18.50;99.90;;;;;;5093521;28;20056;-75
2022/08/03 04:54:59;;;;;;;8.25;1.02;;;18.60;99.90;;;;;;5091955;28;20444;-74
2022/08/03 04:57:25;;;;;;;16.40;0.30;;;18.60;99.90;;;;;;5093498;28;20024;-75
2022/08/03 04:59:55;;;;;;;8.68;1.05;;;18.60;99.90;;;;;;5093254;28;20016;-75
2022/08/03 05:02:21;;;;;;;6.82;0.52;;;18.60;99.90;;;;;;5093430;28;20032;-75
2022/08/03 05:04:47;;;;;;;3.45;0.75;;;18.60;99.90;;;;;;5091879;28;20038;-74
2022/08/03 05:07:14;;;;;;;5.20;0.50;;;18.70;99.90;;;;;;5093232;28;20024;-75
2022/08/03 05:09:39;;;;;;;8.35;0.32;;;18.70;99.90;;;;;;5091813;28;20540;-75
2022/08/03 05:12:06;;;;;;;8.35;0.75;;;18.70;99.90;;;;;;5091739;28;20063;-75
2022/08/03 05:14:32;;;;;;;5.30;0.82;;;18.80;99.90;;;;;;5091731;28;20473;-75
2022/08/03 05:16:58;;;;;;;7.30;0.35;;;18.70;99.90;;;;;;5091746;28;20017;-75
2022/08/03 05:19:23;;;;;;;4.43;0.43;;;18.70;99.90;;;;;;5093270;28;20027;-75
2022/08/03 05:21:49;;;;;;;6.88;0.47;;;18.80;99.90;;;;;;5093064;28;20105;-75
2022/08/03 05:24:15;;;;;;;6.05;0.47;;;19.20;99.90;;;;;;5091725;28;20051;-74
2022/08/03 05:26:41;;;;;;;6.38;0.50;;;18.80;99.90;;;;;;5092980;28;20020;-74
2022/08/03 05:29:06;;;;;;;8.85;0.45;;;18.80;99.90;;;;;;5092943;28;20020;-75
2022/08/03 05:31:32;;;;;;;7.00;0.40;;;18.80;99.90;;;;;;5091590;28;20027;-74
2022/08/03 05:33:57;;;;;;;2.78;0.40;;;18.90;99.90;;;;;;5093205;28;20051;-75
2022/08/03 05:36:23;;;;;;;9.82;1.45;;;18.90;99.90;;;;;;5093415;28;20469;-75
2022/08/03 05:38:49;;;;;;;9.05;0.73;;;19.00;99.90;;;;;;5092620;28;20082;-74
2022/08/03 05:41:14;;;;;;;3.33;0.20;;;19.10;99.90;;;;;;5096688;28;20021;-75
2022/08/03 05:43:40;;;;;;;11.52;0.25;;;19.20;99.90;;;;;;5096655;28;20074;-75
2022/08/03 05:46:05;;;;;;;3.60;0.43;;;19.60;99.90;;;;;;5095960;28;20013;-75
2022/08/03 05:48:31;;;;;;;3.55;0.32;;;19.30;99.90;;;;;;5097089;28;20031;-75
2022/08/03 05:50:56;;;;;;;6.15;0.52;;;19.40;99.90;;;;;;5097018;28;20028;-75
2022/08/03 05:53:22;;;;;;;11.25;1.13;;;19.50;99.90;;;;;;5096819;28;20031;-75
2022/08/03 05:55:48;;;;;;;4.38;0.47;;;19.70;99.90;;;;;;5096915;28;20465;-75
2022/08/03 05:58:13;;;;;;;10.52;0.43;;;19.80;99.90;;;;;;5095091;28;20019;-75
2022/08/03 06:00:39;;;;;;;9.68;1.13;;;19.80;99.90;;;;;;5096212;28;20044;-75
2022/08/03 06:03:04;;;;;;;5.32;0.70;;;19.90;99.90;;;;;;5096298;28;20070;-75
2022/08/03 06:05:30;;;;;;;7.55;0.30;;;20.00;99.90;;;;;;5096575;28;20020;-75
2022/08/03 06:07:56;;;;;;;3.75;0.68;;;20.10;99.90;;;;;;5096796;28;20024;-75
2022/08/03 06:10:21;;;;;;;6.72;0.77;;;20.20;99.90;;;;;;5096021;28;20063;-75
2022/08/03 06:12:48;;;;;;;11.77;0.35;;;20.40;99.90;;;;;;5094783;28;20020;-75
2022/08/03 06:15:14;;;;;;;9.63;0.70;;;20.60;99.90;;;;;;5096692;28;20525;-75
2022/08/03 06:17:45;;;;;;;6.00;1.00;;;20.50;99.90;;;;;;5096169;28;20016;-75
2022/08/03 06:20:11;;;;;;;6.55;1.45;;;20.60;99.90;;;;;;5095906;28;20024;-75
2022/08/03 06:22:36;;;;;;;7.50;0.77;;;20.60;99.90;;;;;;5094713;28;20120;-75
2022/08/03 06:25:02;;;;;;;6.03;0.43;;;20.70;99.90;;;;;;5095962;28;20028;-75
2022/08/03 06:27:27;;;;;;;8.60;0.45;;;20.70;99.90;;;;;;5095943;28;20031;-75
2022/08/03 06:29:53;;;;;;;10.23;0.65;;;20.80;99.90;;;;;;5095847;28;20020;-75
2022/08/03 06:32:21;;;;;;;9.48;0.70;;;20.90;99.90;;;;;;5094375;28;20061;-75
2022/08/03 06:34:47;;;;;;;11.88;1.73;;;21.10;99.90;;;;;;5094360;28;20031;-75
2022/08/03 06:37:13;;;;;;;8.48;0.50;;;21.10;99.90;;;;;;5095630;28;20028;-75
2022/08/03 06:39:39;;;;;;;6.72;1.38;;;21.10;99.90;;;;;;5096302;28;20141;-76
2022/08/03 06:42:04;;;;;;;8.45;0.35;;;21.10;99.90;;;;;;5095597;28;20362;-75
2022/08/03 06:44:30;;;;;;;7.72;1.08;;;21.20;99.90;;;;;;5095822;28;20419;-75
2022/08/03 06:46:55;;;;;;;4.65;1.25;;;21.30;99.90;;;;;;5095541;28;20495;-75
2022/08/03 06:49:21;;;;;;;9.98;0.93;;;21.40;99.90;;;;;;5095472;28;20074;-75
2022/08/03 06:51:50;;;;;;;10.88;0.98;;;21.40;99.90;;;;;;5094232;28;20024;-75
2022/08/03 06:54:16;;;;;;;9.52;1.20;;;21.40;99.90;;;;;;5093964;28;20017;-75
2022/08/03 06:56:42;;;;;;;6.95;0.70;;;21.30;99.90;;;;;;5095291;28;20043;-75
2022/08/03 06:59:07;;;;;;;5.60;0.52;;;21.30;99.90;;;;;;5095808;28;20418;-75
2022/08/03 07:01:33;;;;;;;5.25;1.30;;;21.40;99.90;;;;;;5095736;28;20028;-75
2022/08/03 07:03:59;;;;;;;7.72;0.65;;;21.40;99.90;;;;;;5095066;28;20091;-75
2022/08/03 07:06:25;;;;;;;7.72;0.82;;;21.50;99.90;;;;;;5095553;28;20346;-77
2022/08/03 07:08:50;;;;;;;11.90;1.23;;;21.60;99.90;;;;;;5093842;28;20020;-74
2022/08/03 07:11:16;;;;;;;6.60;1.05;;;21.70;99.90;;;;;;5119025;22;20075;-74
2022/08/03 07:13:42;;;;;;;9.75;0.85;;;22.50;99.90;;;;;;5115443;28;20456;-74
2022/08/03 07:16:07;;;;;;;8.52;1.15;;;21.90;99.90;;;;;;5115978;28;20016;-74
2022/08/03 07:18:36;;;;;;;9.80;0.70;;;21.90;99.90;;;;;;5114162;28;20468;-73
2022/08/03 07:21:02;;;;;;;9.10;0.80;;;21.90;99.90;;;;;;5115322;28;20041;-74
2022/08/03 07:23:28;;;;;;;10.50;0.85;;;21.90;99.90;;;;;;5114045;28;20024;-74
2022/08/03 07:25:53;;;;;;;3.92;0.20;;;21.90;99.90;;;;;;5115247;28;20023;-74
2022/08/03 07:28:19;;;;;;;9.45;1.58;;;22.00;99.90;;;;;;5115229;28;20433;-74
2022/08/03 07:30:45;;;;;;;9.55;0.77;;;22.10;99.90;;;;;;5113758;28;20074;-74
2022/08/03 07:33:10;;;;;;;10.77;0.93;;;22.20;99.90;;;;;;5115583;28;20028;-74
2022/08/03 07:35:36;;;;;;;8.05;1.08;;;22.30;99.90;;;;;;5113802;28;20023;-74
2022/08/03 07:38:02;;;;;;;14.30;1.17;;;22.30;99.90;;;;;;5115288;28;20143;-74
2022/08/03 07:40:27;;;;;;;9.02;1.55;;;22.40;99.90;;;;;;5115205;28;20026;-74
2022/08/03 07:42:53;;;;;;;8.18;0.90;;;22.50;99.90;;;;;;5114884;28;20418;-74
2022/08/03 07:45:20;;;;;;;9.75;0.52;;;22.60;99.90;;;;;;5114834;28;20396;-74
2022/08/03 07:47:45;;;;;;;4.88;0.40;;;22.60;99.90;;;;;;5114870;28;20023;-74
2022/08/03 07:50:11;;;;;;;12.70;0.50;;;22.70;99.90;;;;;;5114604;28;20028;-74
2022/08/03 07:52:48;;;;;;;6.80;0.32;;;22.80;99.90;;;;;;5115200;28;20503;-74
2022/08/03 07:55:15;;;;;;;8.33;0.70;;;23.00;99.90;;;;;;5115257;28;20036;-74
2022/08/03 07:57:41;;;;;;;6.78;0.82;;;23.10;99.90;;;;;;5113344;28;20157;-74
2022/08/03 08:00:21;;;;;;;10.50;0.70;;;23.10;99.90;;;;;;5114469;28;20516;-74
2022/08/03 08:02:46;;;;;;;6.82;0.90;;;23.20;99.90;;;;;;5114253;28;20369;-74
2022/08/03 08:05:12;;;;;;;9.50;1.05;;;23.30;99.90;;;;;;5113289;28;20034;-74
2022/08/03 08:07:38;;;;;;;10.50;1.10;;;23.20;99.90;;;;;;5114668;28;20069;-74
2022/08/03 08:10:11;;;;;;;10.23;0.68;;;23.20;99.90;;;;;;5114670;28;20059;-74
2022/08/03 08:12:38;;;;;;;11.20;1.00;;;23.30;99.90;;;;;;5114304;28;20508;-74
2022/08/03 08:15:04;;;;;;;5.18;0.82;;;23.40;99.90;;;;;;5114339;28;20095;-74
2022/08/03 08:17:30;;;;;;;4.93;0.77;;;23.60;99.90;;;;;;5114173;28;20028;-74
2022/08/03 08:19:56;;;;;;;9.27;0.30;;;23.60;99.90;;;;;;5114330;28;20561;-74
2022/08/03 08:22:21;;;;;;;8.43;0.47;;;23.80;99.90;;;;;;5114108;28;20540;-74
2022/08/03 08:24:47;;;;;;;5.90;0.40;;;23.80;99.90;;;;;;5114510;28;20357;-74
2022/08/03 08:27:14;;;;;;;8.05;1.02;;;24.40;99.90;;;;;;5112938;28;20016;-74
2022/08/03 08:29:39;;;;;;;14.02;1.05;;;24.10;99.90;;;;;;5114107;28;20027;-75
2022/08/03 08:32:05;;;;;;;9.73;0.40;;;24.20;99.90;;;;;;5112718;28;20020;-74
2022/08/03 08:34:31;;;;;;;12.70;1.05;;;24.30;99.90;;;;;;5114069;28;20038;-74
2022/08/03 08:36:57;;;;;;;7.05;0.15;;;24.30;99.90;;;;;;5114226;28;20020;-74
2022/08/03 08:39:23;;;;;;;8.27;1.00;;;24.40;99.90;;;;;;5113061;28;20561;-74
2022/08/03 08:41:51;;;;;;;8.70;0.22;;;24.50;99.90;;;;;;5112610;28;20044;-74
2022/08/03 08:44:17;;;;;;;10.98;1.05;;;24.50;99.90;;;;;;5114499;28;20102;-74
2022/08/03 08:46:43;;;;;;;8.10;0.85;;;24.60;99.90;;;;;;5113883;28;20097;-74
2022/08/03 08:49:09;;;;;;;4.75;0.88;;;24.50;99.90;;;;;;5113880;28;20023;-74
2022/08/03 08:51:38;;;;;;;6.22;1.00;;;24.60;99.90;;;;;;5113812;28;20031;-74
2022/08/03 08:54:06;;;;;;;9.57;0.73;;;24.70;99.90;;;;;;5113970;28;20038;-74
2022/08/03 08:56:33;;;;;;;7.88;0.85;;;24.70;99.90;;;;;;5114048;28;20472;-74
2022/08/03 08:58:59;;;;;;;12.43;0.52;;;24.70;99.90;;;;;;5113751;28;20476;-74
2022/08/03 09:01:26;;;;;;;6.57;1.25;;;24.70;99.90;;;;;;5112475;28;20039;-74
2022/08/03 09:03:53;;;;;;;7.68;1.25;;;24.70;99.90;;;;;;5112507;28;20434;-74
2022/08/03 09:06:19;;;;;;;10.63;0.52;;;24.60;99.90;;;;;;5112482;28;20484;-74
2022/08/03 09:08:45;;;;;;;11.05;1.15;;;24.70;99.90;;;;;;5113686;28;20047;-74
2022/08/03 09:11:11;;;;;;;10.43;1.17;;;24.70;99.90;;;;;;5113537;28;20118;-74
2022/08/03 09:13:36;;;;;;;7.32;0.98;;;24.70;99.90;;;;;;5114610;28;20525;-75
2022/08/03 09:16:17;;;;;;;5.68;0.65;;;24.80;99.90;;;;;;5118076;28;20020;-75
2022/08/03 09:18:45;;;;;;;6.90;1.27;;;24.90;99.90;;;;;;5118000;27;20092;-74
2022/08/03 09:21:31;;;;;;;17.05;1.10;;;25.10;99.90;;;;;;5117694;28;20099;-75
2022/08/03 09:23:59;;;;;;;3.67;0.50;;;25.30;99.90;;;;;;5116308;28;20039;-76
2022/08/03 09:26:25;;;;;;;9.30;1.48;;;25.40;99.90;;;;;;5118236;28;20027;-75
2022/08/03 09:29:00;;;;;;;5.07;1.00;;;25.50;99.90;;;;;;5117590;28;20400;-75
2022/08/03 09:31:34;;;;;;;9.52;0.90;;;25.70;99.90;;;;;;5117464;27;20051;-74
2022/08/03 09:34:01;;;;;;;5.05;0.82;;;25.70;99.90;;;;;;5116236;28;20023;-74
2022/08/03 09:36:38;;;;;;;7.53;0.65;;;25.90;99.90;;;;;;5117421;28;20024;-75
2022/08/03 09:39:12;;;;;;;8.40;0.60;;;26.00;99.90;;;;;;5116162;28;20019;-74
2022/08/03 09:41:41;;;;;;;9.45;0.65;;;26.10;99.90;;;;;;5117234;28;20027;-75
2022/08/03 09:44:07;;;;;;;6.78;0.80;;;26.30;99.90;;;;;;5116037;28;20020;-75
2022/08/03 09:46:50;;;;;;;3.42;0.60;;;26.50;99.90;;;;;;5115902;28;20564;-74
2022/08/03 09:49:16;;;;;;;7.78;0.93;;;26.40;99.90;;;;;;5117199;28;20476;-74
2022/08/03 09:51:42;;;;;;;7.93;1.25;;;26.30;99.90;;;;;;5117107;28;20026;-75
2022/08/03 09:54:08;;;;;;;3.85;0.40;;;26.40;99.90;;;;;;5115764;28;20379;-74
2022/08/03 09:56:40;;;;;;;10.63;1.05;;;26.40;99.90;;;;;;5117055;28;20092;-74
2022/08/03 09:59:06;;;;;;;5.88;0.43;;;26.30;99.90;;;;;;5116968;28;20048;-74
2022/08/03 10:01:33;;;;;;;21.67;1.58;;;26.20;99.90;;;;;;5116931;28;20499;-74
2022/08/03 10:03:59;;;;;;;5.90;0.20;;;26.30;99.90;;;;;;5116949;28;20031;-75
2022/08/03 10:06:26;;;;;;;7.05;0.65;;;26.40;99.90;;;;;;5117120;28;20076;-75
2022/08/03 10:09:06;;;;;;;3.42;0.40;;;26.50;99.90;;;;;;5117080;28;20094;-75
2022/08/03 10:11:33;;;;;;;5.80;0.77;;;26.70;99.90;;;;;;5115201;28;20062;-75
2022/08/03 10:14:03;;;;;;;7.95;0.77;;;26.80;99.90;;;;;;5116850;28;20024;-75
2022/08/03 10:16:34;;;;;;;7.40;0.35;;;27.10;99.90;;;;;;5116742;28;20020;-75
2022/08/03 10:19:00;;;;;;;6.15;0.68;;;27.20;99.90;;;;;;5115489;28;20043;-75
2022/08/03 10:21:31;;;;;;;5.15;0.28;;;27.30;99.90;;;;;;5115692;28;20055;-75
2022/08/03 10:23:57;;;;;;;12.27;1.42;;;27.10;99.90;;;;;;5116986;28;20469;-75
2022/08/03 10:26:26;;;;;;;9.00;0.93;;;27.40;99.90;;;;;;5115032;28;20019;-75
2022/08/03 10:28:54;;;;;;;6.72;0.47;;;27.60;99.90;;;;;;5116674;28;20039;-75
2022/08/03 10:31:22;;;;;;;5.78;0.20;;;27.60;99.90;;;;;;5115125;28;20016;-75
2022/08/03 10:33:50;;;;;;;3.67;0.75;;;27.80;99.90;;;;;;5116262;28;20100;-75
2022/08/03 10:36:17;;;;;;;5.07;0.38;;;27.90;99.90;;;;;;5116620;28;20012;-75
2022/08/03 10:38:45;;;;;;;7.68;0.70;;;28.00;99.80;;;;;;5116275;28;20015;-75
2022/08/03 10:41:12;;;;;;;5.45;0.35;;;28.00;99.90;;;;;;5116210;28;20043;-75
2022/08/03 10:43:57;;;;;;;4.68;0.32;;;28.10;99.90;;;;;;5116229;28;20027;-75
2022/08/03 10:46:24;;;;;;;4.22;0.22;;;28.20;99.90;;;;;;5114933;28;20019;-75
2022/08/03 10:48:51;;;;;;;7.05;0.50;;;28.50;99.90;;;;;;5116361;28;20035;-75
2022/08/03 10:51:18;;;;;;;6.65;0.95;;;28.60;98.60;;;;;;5114982;28;20019;-75
2022/08/03 10:53:44;;;;;;;8.70;0.38;;;28.60;97.00;;;;;;5116124;28;20030;-76
2022/08/03 10:59:17;;;;;;;7.28;0.63;;;28.40;95.70;;;;;;5116292;28;20494;-75
2022/08/03 11:01:52;;;;;;;3.15;0.10;;;28.30;96.40;;;;;;5116067;28;20042;-75
2022/08/03 11:04:20;;;;;;;4.07;0.40;;;28.50;95.20;;;;;;5115877;28;20028;-75
2022/08/03 11:06:47;;;;;;;6.35;0.20;;;28.60;95.50;;;;;;5116348;28;20051;-77
2022/08/03 11:09:15;;;;;;;7.88;0.38;;;28.80;95.20;;;;;;5115722;28;20065;-76
2022/08/03 11:11:42;;;;;;;10.95;0.25;;;28.80;94.60;;;;;;5115494;28;20028;-76
2022/08/03 11:14:09;;;;;;;4.78;0.10;;;28.90;94.40;;;;;;5115383;28;20057;-76
2022/08/03 11:16:38;;;;;;;5.30;0.63;;;29.20;94.40;;;;;;5115748;28;20064;-76
2022/08/03 11:19:07;;;;;;;5.97;0.85;;;29.40;92.60;;;;;;5114227;28;20015;-76
2022/08/03 11:21:47;;;;;;;5.50;0.10;;;29.20;90.90;;;;;;5114100;28;20011;-77
2022/08/03 11:24:35;;;;;;;4.75;0.20;;;29.00;90.00;;;;;;5115323;28;20361;-77
2022/08/03 11:27:21;;;;;;;1.03;0.00;;;29.20;91.60;;;;;;5115276;28;20027;-77
2022/08/03 11:29:58;;;;;;;14.23;0.20;;;29.00;88.50;;;;;;5115445;28;20028;-77
2022/08/03 11:32:39;;;;;;;5.65;0.30;;;29.10;88.50;;;;;;5115207;28;20095;-77
2022/08/03 11:35:15;;;;;;;6.40;0.15;;;29.20;86.90;;;;;;5115747;28;20495;-77
2022/08/03 11:37:53;;;;;;;7.00;0.22;;;29.30;86.20;;;;;;5114651;28;20426;-77
2022/08/03 11:40:48;;;;;;;5.35;0.75;;;29.40;86.60;;;;;;5115171;28;20030;-77
2022/08/03 11:43:29;;;;;;;6.63;0.65;;;29.70;85.00;;;;;;5115468;28;20034;-77
2022/08/03 11:46:15;;;;;;;3.97;0.00;;;29.70;87.20;;;;;;5115394;28;20059;-78
2022/08/03 11:48:43;;;;;;;5.88;0.20;;;29.70;88.50;;;;;;5115126;28;20495;-77
2022/08/03 11:51:30;;;;;;;5.72;0.30;;;29.80;86.90;;;;;;5115061;28;20058;-77
2022/08/03 11:54:02;;;;;;;3.67;0.45;;;29.80;86.50;;;;;;5115366;28;20506;-77
2022/08/03 11:56:42;;;;;;;8.25;0.50;;;30.00;83.20;;;;;;5114764;28;20045;-77
2022/08/03 11:59:08;;;;;;;8.25;1.45;;;30.20;82.60;;;;;;5114970;28;20023;-77
2022/08/03 12:01:33;;;;;;;7.88;0.20;;;30.40;80.70;;;;;;5113370;28;20106;-77
2022/08/03 12:04:03;;;;;;;2.92;0.10;;;30.60;80.70;;;;;;5113364;28;20489;-77
2022/08/03 12:06:29;;;;;;;5.05;0.32;;;30.80;81.50;;;;;;5114690;28;20032;-77
2022/08/03 12:08:55;;;;;;;2.92;0.25;;;30.90;76.30;;;;;;5114658;28;20031;-77
2022/08/03 12:11:21;;;;;;;5.78;0.20;;;30.90;75.60;;;;;;5114286;28;20042;-77
2022/08/03 12:13:49;;;;;;;8.10;0.57;;;30.70;77.00;;;;;;5114315;28;20116;-77
2022/08/03 12:16:20;;;;;;;2.17;0.05;;;30.70;79.30;;;;;;5115008;28;20030;-77
2022/08/03 12:18:54;;;;;;;7.20;0.55;;;30.90;78.50;;;;;;5114761;28;20533;-77
2022/08/03 12:21:23;;;;;;;3.13;0.32;;;31.00;75.90;;;;;;5114589;28;20024;-77
2022/08/03 12:23:49;;;;;;;5.07;0.50;;;31.40;75.30;;;;;;5114689;28;20027;-77
2022/08/03 12:26:14;;;;;;;2.67;0.00;;;31.50;71.80;;;;;;5114807;28;20199;-77
2022/08/03 12:28:47;;;;;;;3.97;0.30;;;31.60;72.50;;;;;;5112962;28;20068;-77
2022/08/03 12:31:12;;;;;;;4.85;0.45;;;32.00;73.20;;;;;;5112898;28;20032;-77
2022/08/03 12:34:02;;;;;;;5.40;0.20;;;32.30;69.30;;;;;;5112765;28;20028;-77
2022/08/03 12:36:30;;;;;;;3.35;0.47;;;32.40;70.50;;;;;;5114688;28;20043;-77
2022/08/03 12:38:58;;;;;;;4.85;0.40;;;32.40;71.30;;;;;;5113141;28;20020;-77
2022/08/03 12:41:33;;;;;;;3.05;0.30;;;32.60;68.80;;;;;;5114359;28;20028;-77
2022/08/03 12:44:00;;;;;;;2.25;0.32;;;32.40;70.10;;;;;;5112943;28;20072;-77
2022/08/03 12:46:31;;;;;;;3.75;0.30;;;32.40;71.30;;;;;;5114620;28;20478;-77
2022/08/03 12:49:16;;;;;;;2.90;0.10;;;32.40;70.30;;;;;;5114316;28;20476;-77
2022/08/03 12:51:42;;;;;;;5.93;0.38;;;32.40;71.40;;;;;;5114059;28;20023;-78
2022/08/03 12:54:18;;;;;;;1.42;0.28;;;32.70;70.50;;;;;;5113882;28;20020;-77
2022/08/03 12:57:02;;;;;;;5.90;0.60;;;32.60;70.70;;;;;;5112740;28;20016;-77
2022/08/03 12:59:30;;;;;;;2.13;0.35;;;32.30;69.60;;;;;;5114537;28;20051;-77
2022/08/03 13:01:55;;;;;;;;;;;32.00;72.10;;;;;;5112935;28;20134;-77
2022/08/03 13:04:39;;;;;;;6.05;0.20;;;32.20;73.50;;;;;;5112613;28;19957;-77